Girard, Georgia
Current Conditions -  °F | °C
As of 11:15 AM on Wednesday 26 Nov 2014 (Local Time) from KBNL Reporting Station
NA  
Wind Chill: 54°   Ceiling: NA
Heat Index: 54°   Visibility: NA
Dew Point: 50°   Wind: 5mph
Humidity: 88%   Direction: 300°WNW
Pressure: 30.05"   Gusts: NA
Location:  33.04°N, 81.71°W
Report Text: KBNL 261615Z AUTO 30004KT 12/10 A3005 RMK AO2
Loading
Personal Weather Stations






























Interactive Weather Map New forecast layout! Learn more

10-Day Weather Forecast

Advertisements
Track Severe Weather on mobile